<?xml version="1.0" encoding="UTF-8" standalone="no" ?>
<gpx xmlns="http://www.topografix.com/GPX/1/1" xmlns:xsi="http://www.w3.org/2001/XMLSchema-instance" xsi:schemaLocation="http://www.topografix.com/GPX/1/1 http://www.topografix.com/GPX/1/1/gpx.xsd" version="1.1" creator="VisuGPX - https://www.visugpx.com">
  <metadata>
    <name>randonnée à Blangy-le-château</name>
    <desc><![CDATA[très belle randonnée]]></desc>
  </metadata>
  <trk>
    <name><![CDATA[ONmove 100 - 08/10/2013]]></name>
    <trkseg>
      <trkpt lat="49.24235" lon="0.27246">
        <ele>66.7</ele>
        <time>2013-10-08T09:53:37Z</time>
      </trkpt>
      <trkpt lat="49.24307" lon="0.27237">
        <ele>64.8</ele>
        <time>2013-10-08T09:55:16Z</time>
      </trkpt>
      <trkpt lat="49.24379" lon="0.27283">
        <ele>59.7</ele>
        <time>2013-10-08T09:56:27Z</time>
      </trkpt>
      <trkpt lat="49.2435" lon="0.272">
        <ele>62.8</ele>
        <time>2013-10-08T09:57:15Z</time>
      </trkpt>
      <trkpt lat="49.24308" lon="0.27124">
        <ele>66.3</ele>
        <time>2013-10-08T09:58:10Z</time>
      </trkpt>
      <trkpt lat="49.24262" lon="0.27068">
        <ele>70.2</ele>
        <time>2013-10-08T09:59:05Z</time>
      </trkpt>
      <trkpt lat="49.24215" lon="0.27007">
        <ele>75.3</ele>
        <time>2013-10-08T10:00:04Z</time>
      </trkpt>
      <trkpt lat="49.24135" lon="0.27032">
        <ele>92.4</ele>
        <time>2013-10-08T10:01:54Z</time>
      </trkpt>
      <trkpt lat="49.24058" lon="0.27001">
        <ele>104.7</ele>
        <time>2013-10-08T10:03:47Z</time>
      </trkpt>
      <trkpt lat="49.24032" lon="0.26917">
        <ele>112.7</ele>
        <time>2013-10-08T10:05:44Z</time>
      </trkpt>
      <trkpt lat="49.24025" lon="0.26829">
        <ele>115.2</ele>
        <time>2013-10-08T10:06:49Z</time>
      </trkpt>
      <trkpt lat="49.24004" lon="0.26738">
        <ele>116.7</ele>
        <time>2013-10-08T10:08:17Z</time>
      </trkpt>
      <trkpt lat="49.23962" lon="0.26675">
        <ele>118.1</ele>
        <time>2013-10-08T10:09:09Z</time>
      </trkpt>
      <trkpt lat="49.23861" lon="0.2659">
        <ele>116.2</ele>
        <time>2013-10-08T10:10:54Z</time>
      </trkpt>
      <trkpt lat="49.23753" lon="0.26526">
        <ele>118.8</ele>
        <time>2013-10-08T10:13:34Z</time>
      </trkpt>
      <trkpt lat="49.2367" lon="0.26401">
        <ele>121.9</ele>
        <time>2013-10-08T10:15:14Z</time>
      </trkpt>
      <trkpt lat="49.23574" lon="0.2631">
        <ele>123</ele>
        <time>2013-10-08T10:17:12Z</time>
      </trkpt>
      <trkpt lat="49.23538" lon="0.26235">
        <ele>123.6</ele>
        <time>2013-10-08T10:17:57Z</time>
      </trkpt>
      <trkpt lat="49.23495" lon="0.26177">
        <ele>123.4</ele>
        <time>2013-10-08T10:19:06Z</time>
      </trkpt>
      <trkpt lat="49.23436" lon="0.26144">
        <ele>122.2</ele>
        <time>2013-10-08T10:19:59Z</time>
      </trkpt>
      <trkpt lat="49.23395" lon="0.26081">
        <ele>119.9</ele>
        <time>2013-10-08T10:20:59Z</time>
      </trkpt>
      <trkpt lat="49.23347" lon="0.2603">
        <ele>117.1</ele>
        <time>2013-10-08T10:21:50Z</time>
      </trkpt>
      <trkpt lat="49.23299" lon="0.2598">
        <ele>112.6</ele>
        <time>2013-10-08T10:22:44Z</time>
      </trkpt>
      <trkpt lat="49.23203" lon="0.25889">
        <ele>95</ele>
        <time>2013-10-08T10:24:44Z</time>
      </trkpt>
      <trkpt lat="49.23093" lon="0.25787">
        <ele>105.7</ele>
        <time>2013-10-08T10:28:32Z</time>
      </trkpt>
      <trkpt lat="49.23056" lon="0.25708">
        <ele>114</ele>
        <time>2013-10-08T10:30:16Z</time>
      </trkpt>
      <trkpt lat="49.23011" lon="0.25643">
        <ele>120.1</ele>
        <time>2013-10-08T10:31:29Z</time>
      </trkpt>
      <trkpt lat="49.22973" lon="0.25566">
        <ele>124</ele>
        <time>2013-10-08T10:32:30Z</time>
      </trkpt>
      <trkpt lat="49.23001" lon="0.25476">
        <ele>124</ele>
        <time>2013-10-08T10:33:39Z</time>
      </trkpt>
      <trkpt lat="49.22993" lon="0.25368">
        <ele>124</ele>
        <time>2013-10-08T10:35:09Z</time>
      </trkpt>
      <trkpt lat="49.22986" lon="0.25266">
        <ele>124.2</ele>
        <time>2013-10-08T10:36:29Z</time>
      </trkpt>
      <trkpt lat="49.22946" lon="0.25153">
        <ele>124</ele>
        <time>2013-10-08T10:37:37Z</time>
      </trkpt>
      <trkpt lat="49.23026" lon="0.25075">
        <ele>125</ele>
        <time>2013-10-08T10:41:39Z</time>
      </trkpt>
      <trkpt lat="49.2308" lon="0.25019">
        <ele>124.1</ele>
        <time>2013-10-08T10:42:40Z</time>
      </trkpt>
      <trkpt lat="49.2313" lon="0.24962">
        <ele>124</ele>
        <time>2013-10-08T10:43:39Z</time>
      </trkpt>
      <trkpt lat="49.23179" lon="0.24905">
        <ele>123</ele>
        <time>2013-10-08T10:44:24Z</time>
      </trkpt>
      <trkpt lat="49.23231" lon="0.24846">
        <ele>122.7</ele>
        <time>2013-10-08T10:45:39Z</time>
      </trkpt>
      <trkpt lat="49.23327" lon="0.24723">
        <ele>122</ele>
        <time>2013-10-08T10:47:34Z</time>
      </trkpt>
      <trkpt lat="49.23384" lon="0.24639">
        <ele>120.2</ele>
        <time>2013-10-08T10:48:39Z</time>
      </trkpt>
      <trkpt lat="49.23351" lon="0.24535">
        <ele>122</ele>
        <time>2013-10-08T10:49:49Z</time>
      </trkpt>
      <trkpt lat="49.23323" lon="0.24447">
        <ele>122.4</ele>
        <time>2013-10-08T10:50:37Z</time>
      </trkpt>
      <trkpt lat="49.23315" lon="0.24345">
        <ele>123</ele>
        <time>2013-10-08T10:51:32Z</time>
      </trkpt>
      <trkpt lat="49.23318" lon="0.24254">
        <ele>122.6</ele>
        <time>2013-10-08T10:52:22Z</time>
      </trkpt>
      <trkpt lat="49.23319" lon="0.24155">
        <ele>122</ele>
        <time>2013-10-08T10:53:20Z</time>
      </trkpt>
      <trkpt lat="49.23317" lon="0.24064">
        <ele>122</ele>
        <time>2013-10-08T10:54:11Z</time>
      </trkpt>
      <trkpt lat="49.23294" lon="0.23974">
        <ele>121.6</ele>
        <time>2013-10-08T10:55:04Z</time>
      </trkpt>
      <trkpt lat="49.23249" lon="0.23884">
        <ele>121</ele>
        <time>2013-10-08T10:56:07Z</time>
      </trkpt>
      <trkpt lat="49.23209" lon="0.23794">
        <ele>120.5</ele>
        <time>2013-10-08T10:57:10Z</time>
      </trkpt>
      <trkpt lat="49.23164" lon="0.23712">
        <ele>118.9</ele>
        <time>2013-10-08T10:58:10Z</time>
      </trkpt>
      <trkpt lat="49.23122" lon="0.2362">
        <ele>115.2</ele>
        <time>2013-10-08T10:59:21Z</time>
      </trkpt>
      <trkpt lat="49.23131" lon="0.23492">
        <ele>107.5</ele>
        <time>2013-10-08T11:00:34Z</time>
      </trkpt>
      <trkpt lat="49.23158" lon="0.23377">
        <ele>94.7</ele>
        <time>2013-10-08T11:04:25Z</time>
      </trkpt>
      <trkpt lat="49.23221" lon="0.23329">
        <ele>93.3</ele>
        <time>2013-10-08T11:06:56Z</time>
      </trkpt>
      <trkpt lat="49.23293" lon="0.23261">
        <ele>87.6</ele>
        <time>2013-10-08T11:09:54Z</time>
      </trkpt>
      <trkpt lat="49.2336" lon="0.23208">
        <ele>83.9</ele>
        <time>2013-10-08T11:10:57Z</time>
      </trkpt>
      <trkpt lat="49.23428" lon="0.23173">
        <ele>83</ele>
        <time>2013-10-08T11:12:14Z</time>
      </trkpt>
      <trkpt lat="49.2349" lon="0.23116">
        <ele>80.1</ele>
        <time>2013-10-08T11:14:29Z</time>
      </trkpt>
      <trkpt lat="49.23558" lon="0.23072">
        <ele>77</ele>
        <time>2013-10-08T11:15:34Z</time>
      </trkpt>
      <trkpt lat="49.23591" lon="0.22965">
        <ele>71.7</ele>
        <time>2013-10-08T11:17:15Z</time>
      </trkpt>
      <trkpt lat="49.23567" lon="0.22841">
        <ele>66.4</ele>
        <time>2013-10-08T11:19:24Z</time>
      </trkpt>
      <trkpt lat="49.2351" lon="0.22631">
        <ele>51.8</ele>
        <time>2013-10-08T11:22:31Z</time>
      </trkpt>
      <trkpt lat="49.23573" lon="0.22632">
        <ele>53.5</ele>
        <time>2013-10-08T11:24:21Z</time>
      </trkpt>
      <trkpt lat="49.23639" lon="0.22639">
        <ele>55</ele>
        <time>2013-10-08T11:25:24Z</time>
      </trkpt>
      <trkpt lat="49.23704" lon="0.22659">
        <ele>53</ele>
        <time>2013-10-08T11:26:11Z</time>
      </trkpt>
      <trkpt lat="49.23765" lon="0.2263">
        <ele>56.8</ele>
        <time>2013-10-08T11:27:47Z</time>
      </trkpt>
      <trkpt lat="49.23734" lon="0.22752">
        <ele>62</ele>
        <time>2013-10-08T11:29:16Z</time>
      </trkpt>
      <trkpt lat="49.23717" lon="0.22885">
        <ele>67.7</ele>
        <time>2013-10-08T11:30:50Z</time>
      </trkpt>
      <trkpt lat="49.23726" lon="0.22984">
        <ele>75</ele>
        <time>2013-10-08T11:31:55Z</time>
      </trkpt>
      <trkpt lat="49.23694" lon="0.23078">
        <ele>87.1</ele>
        <time>2013-10-08T11:34:47Z</time>
      </trkpt>
      <trkpt lat="49.23659" lon="0.23166">
        <ele>99.3</ele>
        <time>2013-10-08T11:36:19Z</time>
      </trkpt>
      <trkpt lat="49.23629" lon="0.23255">
        <ele>110.5</ele>
        <time>2013-10-08T11:37:56Z</time>
      </trkpt>
      <trkpt lat="49.2364" lon="0.23372">
        <ele>118.4</ele>
        <time>2013-10-08T11:43:17Z</time>
      </trkpt>
      <trkpt lat="49.23628" lon="0.23475">
        <ele>120.6</ele>
        <time>2013-10-08T11:44:39Z</time>
      </trkpt>
      <trkpt lat="49.23581" lon="0.23554">
        <ele>121</ele>
        <time>2013-10-08T11:45:44Z</time>
      </trkpt>
      <trkpt lat="49.23538" lon="0.23648">
        <ele>122</ele>
        <time>2013-10-08T11:46:54Z</time>
      </trkpt>
      <trkpt lat="49.23637" lon="0.23666">
        <ele>122</ele>
        <time>2013-10-08T11:49:14Z</time>
      </trkpt>
      <trkpt lat="49.23706" lon="0.2365">
        <ele>121.6</ele>
        <time>2013-10-08T11:50:19Z</time>
      </trkpt>
      <trkpt lat="49.23745" lon="0.23779">
        <ele>122.2</ele>
        <time>2013-10-08T11:53:05Z</time>
      </trkpt>
      <trkpt lat="49.23765" lon="0.23877">
        <ele>122.2</ele>
        <time>2013-10-08T11:54:14Z</time>
      </trkpt>
      <trkpt lat="49.23821" lon="0.23927">
        <ele>121.8</ele>
        <time>2013-10-08T11:55:14Z</time>
      </trkpt>
      <trkpt lat="49.23881" lon="0.23932">
        <ele>121.1</ele>
        <time>2013-10-08T11:56:04Z</time>
      </trkpt>
      <trkpt lat="49.23944" lon="0.2396">
        <ele>120.4</ele>
        <time>2013-10-08T11:56:59Z</time>
      </trkpt>
      <trkpt lat="49.23993" lon="0.2402">
        <ele>120</ele>
        <time>2013-10-08T11:58:22Z</time>
      </trkpt>
      <trkpt lat="49.2405" lon="0.24172">
        <ele>114.7</ele>
        <time>2013-10-08T12:06:35Z</time>
      </trkpt>
      <trkpt lat="49.24238" lon="0.24092">
        <ele>112.9</ele>
        <time>2013-10-08T12:10:06Z</time>
      </trkpt>
      <trkpt lat="49.2436" lon="0.2411">
        <ele>92.5</ele>
        <time>2013-10-08T12:10:52Z</time>
      </trkpt>
      <trkpt lat="49.24371" lon="0.24016">
        <ele>94.1</ele>
        <time>2013-10-08T12:12:08Z</time>
      </trkpt>
      <trkpt lat="49.24418" lon="0.23947">
        <ele>85.6</ele>
        <time>2013-10-08T12:13:03Z</time>
      </trkpt>
      <trkpt lat="49.24459" lon="0.23873">
        <ele>79.5</ele>
        <time>2013-10-08T12:14:24Z</time>
      </trkpt>
      <trkpt lat="49.24519" lon="0.23902">
        <ele>70.5</ele>
        <time>2013-10-08T12:15:27Z</time>
      </trkpt>
      <trkpt lat="49.24616" lon="0.23964">
        <ele>61.1</ele>
        <time>2013-10-08T12:16:42Z</time>
      </trkpt>
      <trkpt lat="49.24704" lon="0.23915">
        <ele>57.4</ele>
        <time>2013-10-08T12:18:44Z</time>
      </trkpt>
      <trkpt lat="49.24787" lon="0.2386">
        <ele>50.1</ele>
        <time>2013-10-08T12:20:01Z</time>
      </trkpt>
      <trkpt lat="49.24861" lon="0.23797">
        <ele>47.7</ele>
        <time>2013-10-08T12:22:31Z</time>
      </trkpt>
      <trkpt lat="49.2494" lon="0.23733">
        <ele>44.1</ele>
        <time>2013-10-08T12:24:11Z</time>
      </trkpt>
      <trkpt lat="49.25021" lon="0.23671">
        <ele>39.7</ele>
        <time>2013-10-08T12:26:07Z</time>
      </trkpt>
      <trkpt lat="49.25114" lon="0.23661">
        <ele>37.8</ele>
        <time>2013-10-08T12:27:26Z</time>
      </trkpt>
      <trkpt lat="49.25202" lon="0.23621">
        <ele>31.8</ele>
        <time>2013-10-08T12:29:04Z</time>
      </trkpt>
      <trkpt lat="49.2529" lon="0.23601">
        <ele>32.6</ele>
        <time>2013-10-08T12:31:22Z</time>
      </trkpt>
      <trkpt lat="49.25271" lon="0.23716">
        <ele>35.1</ele>
        <time>2013-10-08T12:35:27Z</time>
      </trkpt>
      <trkpt lat="49.25236" lon="0.2382">
        <ele>37.8</ele>
        <time>2013-10-08T12:36:51Z</time>
      </trkpt>
      <trkpt lat="49.2518" lon="0.23899">
        <ele>43</ele>
        <time>2013-10-08T12:38:01Z</time>
      </trkpt>
      <trkpt lat="49.25129" lon="0.23983">
        <ele>43</ele>
        <time>2013-10-08T12:39:06Z</time>
      </trkpt>
      <trkpt lat="49.25187" lon="0.2397">
        <ele>53.9</ele>
        <time>2013-10-08T12:41:29Z</time>
      </trkpt>
      <trkpt lat="49.25265" lon="0.23948">
        <ele>75.1</ele>
        <time>2013-10-08T12:44:42Z</time>
      </trkpt>
      <trkpt lat="49.25327" lon="0.23907">
        <ele>88.9</ele>
        <time>2013-10-08T12:46:39Z</time>
      </trkpt>
      <trkpt lat="49.25398" lon="0.2389">
        <ele>97.3</ele>
        <time>2013-10-08T12:49:14Z</time>
      </trkpt>
      <trkpt lat="49.25454" lon="0.23959">
        <ele>102.4</ele>
        <time>2013-10-08T12:50:33Z</time>
      </trkpt>
      <trkpt lat="49.25496" lon="0.24044">
        <ele>105.6</ele>
        <time>2013-10-08T12:51:49Z</time>
      </trkpt>
      <trkpt lat="49.2554" lon="0.2414">
        <ele>110.6</ele>
        <time>2013-10-08T12:53:36Z</time>
      </trkpt>
      <trkpt lat="49.25554" lon="0.24249">
        <ele>114</ele>
        <time>2013-10-08T12:55:31Z</time>
      </trkpt>
      <trkpt lat="49.25619" lon="0.24273">
        <ele>112.8</ele>
        <time>2013-10-08T12:57:08Z</time>
      </trkpt>
      <trkpt lat="49.2568" lon="0.24231">
        <ele>109.6</ele>
        <time>2013-10-08T12:58:27Z</time>
      </trkpt>
      <trkpt lat="49.25743" lon="0.24195">
        <ele>113.5</ele>
        <time>2013-10-08T12:59:31Z</time>
      </trkpt>
      <trkpt lat="49.25779" lon="0.24106">
        <ele>116</ele>
        <time>2013-10-08T13:00:36Z</time>
      </trkpt>
      <trkpt lat="49.25841" lon="0.24023">
        <ele>118.1</ele>
        <time>2013-10-08T13:01:46Z</time>
      </trkpt>
      <trkpt lat="49.25908" lon="0.23959">
        <ele>119.7</ele>
        <time>2013-10-08T13:02:59Z</time>
      </trkpt>
      <trkpt lat="49.2602" lon="0.23957">
        <ele>120.2</ele>
        <time>2013-10-08T13:08:22Z</time>
      </trkpt>
      <trkpt lat="49.26021" lon="0.24125">
        <ele>111.7</ele>
        <time>2013-10-08T13:11:29Z</time>
      </trkpt>
      <trkpt lat="49.25977" lon="0.24259">
        <ele>101.2</ele>
        <time>2013-10-08T13:13:26Z</time>
      </trkpt>
      <trkpt lat="49.25936" lon="0.24387">
        <ele>93.1</ele>
        <time>2013-10-08T13:19:28Z</time>
      </trkpt>
      <trkpt lat="49.25922" lon="0.24514">
        <ele>89.1</ele>
        <time>2013-10-08T13:20:52Z</time>
      </trkpt>
      <trkpt lat="49.2589" lon="0.24646">
        <ele>85.5</ele>
        <time>2013-10-08T13:22:26Z</time>
      </trkpt>
      <trkpt lat="49.25854" lon="0.24774">
        <ele>78.3</ele>
        <time>2013-10-08T13:24:18Z</time>
      </trkpt>
      <trkpt lat="49.25821" lon="0.24909">
        <ele>73.9</ele>
        <time>2013-10-08T13:25:54Z</time>
      </trkpt>
      <trkpt lat="49.25773" lon="0.25036">
        <ele>68.8</ele>
        <time>2013-10-08T13:27:27Z</time>
      </trkpt>
      <trkpt lat="49.25696" lon="0.25114">
        <ele>62.8</ele>
        <time>2013-10-08T13:28:46Z</time>
      </trkpt>
      <trkpt lat="49.25612" lon="0.25222">
        <ele>54.1</ele>
        <time>2013-10-08T13:31:01Z</time>
      </trkpt>
      <trkpt lat="49.25573" lon="0.25376">
        <ele>58.7</ele>
        <time>2013-10-08T13:33:44Z</time>
      </trkpt>
      <trkpt lat="49.25534" lon="0.25517">
        <ele>64.9</ele>
        <time>2013-10-08T13:35:16Z</time>
      </trkpt>
      <trkpt lat="49.255" lon="0.25606">
        <ele>67.8</ele>
        <time>2013-10-08T13:36:16Z</time>
      </trkpt>
      <trkpt lat="49.25443" lon="0.25569">
        <ele>71.2</ele>
        <time>2013-10-08T13:37:39Z</time>
      </trkpt>
      <trkpt lat="49.25348" lon="0.25496">
        <ele>82.9</ele>
        <time>2013-10-08T13:40:02Z</time>
      </trkpt>
      <trkpt lat="49.25243" lon="0.25462">
        <ele>103</ele>
        <time>2013-10-08T13:42:56Z</time>
      </trkpt>
      <trkpt lat="49.25184" lon="0.25426">
        <ele>112.4</ele>
        <time>2013-10-08T13:44:13Z</time>
      </trkpt>
      <trkpt lat="49.25131" lon="0.25472">
        <ele>113.9</ele>
        <time>2013-10-08T13:46:41Z</time>
      </trkpt>
      <trkpt lat="49.25097" lon="0.25545">
        <ele>115.8</ele>
        <time>2013-10-08T13:47:53Z</time>
      </trkpt>
      <trkpt lat="49.25049" lon="0.25594">
        <ele>118.4</ele>
        <time>2013-10-08T13:48:46Z</time>
      </trkpt>
      <trkpt lat="49.24996" lon="0.25642">
        <ele>120.1</ele>
        <time>2013-10-08T13:49:48Z</time>
      </trkpt>
      <trkpt lat="49.24942" lon="0.25685">
        <ele>120.4</ele>
        <time>2013-10-08T13:50:41Z</time>
      </trkpt>
      <trkpt lat="49.24877" lon="0.25711">
        <ele>121</ele>
        <time>2013-10-08T13:52:11Z</time>
      </trkpt>
      <trkpt lat="49.24843" lon="0.25783">
        <ele>120.1</ele>
        <time>2013-10-08T13:54:18Z</time>
      </trkpt>
      <trkpt lat="49.24831" lon="0.25876">
        <ele>120.9</ele>
        <time>2013-10-08T13:55:24Z</time>
      </trkpt>
      <trkpt lat="49.24818" lon="0.25965">
        <ele>121.4</ele>
        <time>2013-10-08T13:56:21Z</time>
      </trkpt>
      <trkpt lat="49.24799" lon="0.26051">
        <ele>122</ele>
        <time>2013-10-08T13:58:21Z</time>
      </trkpt>
      <trkpt lat="49.24795" lon="0.26141">
        <ele>122</ele>
        <time>2013-10-08T13:59:39Z</time>
      </trkpt>
      <trkpt lat="49.24772" lon="0.26317">
        <ele>123</ele>
        <time>2013-10-08T14:03:51Z</time>
      </trkpt>
      <trkpt lat="49.24725" lon="0.26472">
        <ele>122.1</ele>
        <time>2013-10-08T14:05:26Z</time>
      </trkpt>
      <trkpt lat="49.24744" lon="0.2664">
        <ele>121.5</ele>
        <time>2013-10-08T14:07:11Z</time>
      </trkpt>
      <trkpt lat="49.24767" lon="0.26811">
        <ele>116.8</ele>
        <time>2013-10-08T14:09:37Z</time>
      </trkpt>
      <trkpt lat="49.24771" lon="0.26914">
        <ele>112.4</ele>
        <time>2013-10-08T14:10:41Z</time>
      </trkpt>
      <trkpt lat="49.24775" lon="0.27025">
        <ele>104</ele>
        <time>2013-10-08T14:11:47Z</time>
      </trkpt>
      <trkpt lat="49.24834" lon="0.27101">
        <ele>89.9</ele>
        <time>2013-10-08T14:18:56Z</time>
      </trkpt>
      <trkpt lat="49.2484" lon="0.27218">
        <ele>76.7</ele>
        <time>2013-10-08T14:20:36Z</time>
      </trkpt>
      <trkpt lat="49.24911" lon="0.27223">
        <ele>78</ele>
        <time>2013-10-08T14:22:21Z</time>
      </trkpt>
      <trkpt lat="49.24978" lon="0.27222">
        <ele>82.4</ele>
        <time>2013-10-08T14:23:31Z</time>
      </trkpt>
      <trkpt lat="49.25048" lon="0.27218">
        <ele>85.2</ele>
        <time>2013-10-08T14:25:06Z</time>
      </trkpt>
      <trkpt lat="49.25112" lon="0.27194">
        <ele>88</ele>
        <time>2013-10-08T14:26:01Z</time>
      </trkpt>
      <trkpt lat="49.25225" lon="0.2715">
        <ele>89.9</ele>
        <time>2013-10-08T14:27:52Z</time>
      </trkpt>
      <trkpt lat="49.25275" lon="0.272">
        <ele>89.7</ele>
        <time>2013-10-08T14:30:28Z</time>
      </trkpt>
      <trkpt lat="49.25328" lon="0.27245">
        <ele>90</ele>
        <time>2013-10-08T14:31:26Z</time>
      </trkpt>
      <trkpt lat="49.25421" lon="0.27336">
        <ele>90.9</ele>
        <time>2013-10-08T14:32:56Z</time>
      </trkpt>
      <trkpt lat="49.25501" lon="0.27444">
        <ele>91</ele>
        <time>2013-10-08T14:34:36Z</time>
      </trkpt>
      <trkpt lat="49.25464" lon="0.27602">
        <ele>86.8</ele>
        <time>2013-10-08T14:36:26Z</time>
      </trkpt>
      <trkpt lat="49.25432" lon="0.27757">
        <ele>79.4</ele>
        <time>2013-10-08T14:38:01Z</time>
      </trkpt>
      <trkpt lat="49.25322" lon="0.27774">
        <ele>71.7</ele>
        <time>2013-10-08T14:39:56Z</time>
      </trkpt>
      <trkpt lat="49.25218" lon="0.27793">
        <ele>67.3</ele>
        <time>2013-10-08T14:41:21Z</time>
      </trkpt>
      <trkpt lat="49.25109" lon="0.27807">
        <ele>64.8</ele>
        <time>2013-10-08T14:43:36Z</time>
      </trkpt>
      <trkpt lat="49.25004" lon="0.27787">
        <ele>61.9</ele>
        <time>2013-10-08T14:45:29Z</time>
      </trkpt>
      <trkpt lat="49.24939" lon="0.27782">
        <ele>59.7</ele>
        <time>2013-10-08T14:46:38Z</time>
      </trkpt>
      <trkpt lat="49.24908" lon="0.27865">
        <ele>63.3</ele>
        <time>2013-10-08T14:48:07Z</time>
      </trkpt>
      <trkpt lat="49.24837" lon="0.27984">
        <ele>71.4</ele>
        <time>2013-10-08T14:50:01Z</time>
      </trkpt>
      <trkpt lat="49.2475" lon="0.27926">
        <ele>71.7</ele>
        <time>2013-10-08T14:52:01Z</time>
      </trkpt>
      <trkpt lat="49.24668" lon="0.2784">
        <ele>70.5</ele>
        <time>2013-10-08T14:53:27Z</time>
      </trkpt>
      <trkpt lat="49.24604" lon="0.27721">
        <ele>61.9</ele>
        <time>2013-10-08T14:55:16Z</time>
      </trkpt>
      <trkpt lat="49.24533" lon="0.27616">
        <ele>54</ele>
        <time>2013-10-08T14:57:16Z</time>
      </trkpt>
      <trkpt lat="49.24463" lon="0.27487">
        <ele>53.2</ele>
        <time>2013-10-08T14:59:03Z</time>
      </trkpt>
      <trkpt lat="49.24457" lon="0.2739">
        <ele>54.5</ele>
        <time>2013-10-08T15:00:01Z</time>
      </trkpt>
      <trkpt lat="49.24407" lon="0.27338">
        <ele>57.3</ele>
        <time>2013-10-08T15:01:01Z</time>
      </trkpt>
      <trkpt lat="49.24303" lon="0.2736">
        <ele>60.2</ele>
        <time>2013-10-08T15:02:51Z</time>
      </trkpt>
      <trkpt lat="49.24219" lon="0.27257">
        <ele>67.1</ele>
        <time>2013-10-08T15:06:09Z</time>
      </trkpt>
    </trkseg>
  </trk>
</gpx>